Time;durP1;ratioP1;P1;durP2;ratioP2;P2;SDS_P1;SDS_P2;PMS_P1;PMS_P2;Temp;Humidity;BMP_temperature;BMP_pressure;BME280_temperature;BME280_humidity;BME280_pressure;Samples;Min_cycle;Max_cycle;Signal;HPM_P1;HPM_P2
2022/06/30 00:01:18;;;;;;;7.75;6.30;;;17.90;99.90;;;;;;5095767;28;20751;-83
2022/06/30 00:04:00;;;;;;;9.30;6.95;;;17.90;99.90;;;;;;5093829;28;20227;-83
2022/06/30 00:06:27;;;;;;;8.48;6.70;;;17.80;99.90;;;;;;5087665;28;20566;-83
2022/06/30 00:08:54;;;;;;;9.82;6.80;;;17.70;99.90;;;;;;5092425;28;20200;-83
2022/06/30 00:11:25;;;;;;;7.70;6.95;;;17.60;99.90;;;;;;5093454;28;20548;-83
2022/06/30 00:14:00;;;;;;;8.15;7.35;;;17.50;99.90;;;;;;5095451;28;20189;-83
2022/06/30 00:16:27;;;;;;;8.27;6.97;;;17.50;99.90;;;;;;5085169;28;20197;-83
2022/06/30 00:18:54;;;;;;;7.95;6.70;;;17.50;99.90;;;;;;5093121;28;20193;-82
2022/06/30 00:21:21;;;;;;;6.75;6.15;;;17.50;99.90;;;;;;5100719;28;20704;-83
2022/06/30 00:23:47;;;;;;;8.10;6.70;;;17.40;99.90;;;;;;5093925;28;20251;-83
2022/06/30 00:26:14;;;;;;;7.70;6.60;;;17.40;99.90;;;;;;5087426;28;20583;-83
2022/06/30 00:28:43;;;;;;;9.02;6.30;;;17.40;99.90;;;;;;5085148;28;20181;-83
2022/06/30 00:31:18;;;;;;;6.82;6.13;;;17.40;99.90;;;;;;5091328;28;20234;-83
2022/06/30 00:33:49;;;;;;;8.18;6.18;;;17.50;99.90;;;;;;5099735;28;20193;-83
2022/06/30 00:36:18;;;;;;;7.88;6.03;;;17.50;99.90;;;;;;5086310;28;20232;-83
2022/06/30 00:39:00;;;;;;;8.98;6.78;;;17.60;99.90;;;;;;5094533;28;20878;-83
2022/06/30 00:41:42;;;;;;;7.10;5.97;;;17.60;99.90;;;;;;5085989;28;20221;-83
2022/06/30 00:44:31;;;;;;;6.93;6.22;;;17.60;99.90;;;;;;5098556;28;20587;-83
2022/06/30 00:47:23;;;;;;;7.45;6.63;;;17.50;99.90;;;;;;5099291;28;20209;-83
2022/06/30 00:50:02;;;;;;;7.05;6.20;;;17.40;99.90;;;;;;5097610;28;20231;-83
2022/06/30 00:52:30;;;;;;;10.10;6.50;;;17.40;99.90;;;;;;5103265;28;20191;-83
2022/06/30 00:55:15;;;;;;;6.47;5.88;;;17.50;99.90;;;;;;5092626;28;20197;-83
2022/06/30 00:57:43;;;;;;;6.82;6.13;;;17.60;99.90;;;;;;5093982;28;20620;-83
2022/06/30 01:00:15;;;;;;;8.52;6.60;;;17.60;99.90;;;;;;5104279;28;20197;-83
2022/06/30 01:02:55;;;;;;;8.20;6.15;;;17.50;99.90;;;;;;5106074;28;20189;-83
2022/06/30 01:05:54;;;;;;;9.45;6.50;;;17.40;99.90;;;;;;5092516;28;20217;-83
2022/06/30 01:08:22;;;;;;;6.22;5.60;;;17.30;99.90;;;;;;5092664;28;20205;-83
2022/06/30 01:13:46;;;;;;;8.35;6.28;;;17.30;99.90;;;;;;5106997;28;20197;-83
2022/06/30 01:16:22;;;;;;;7.68;5.93;;;17.20;99.90;;;;;;5092685;28;20550;-83
2022/06/30 01:18:49;;;;;;;7.68;6.20;;;17.20;99.90;;;;;;5082722;28;20185;-83
2022/06/30 01:21:18;;;;;;;8.52;6.43;;;17.10;99.90;;;;;;5096415;28;20198;-83
2022/06/30 01:23:49;;;;;;;7.20;6.50;;;17.10;99.90;;;;;;5083386;28;20201;-84
2022/06/30 01:26:42;;;;;;;9.98;6.00;;;17.00;99.90;;;;;;5090853;28;20209;-83
2022/06/30 01:29:08;;;;;;;7.80;6.63;;;16.90;99.90;;;;;;5085497;28;20201;-83
2022/06/30 01:31:36;;;;;;;7.15;6.10;;;17.00;99.90;;;;;;5098367;28;20188;-83
2022/06/30 01:34:03;;;;;;;6.38;5.80;;;17.00;99.90;;;;;;5097888;28;20216;-84
2022/06/30 01:36:30;;;;;;;7.07;6.00;;;17.20;99.90;;;;;;5105057;28;20258;-83
2022/06/30 01:38:59;;;;;;;6.80;6.20;;;17.30;99.90;;;;;;5093669;28;20720;-83
2022/06/30 01:41:30;;;;;;;6.18;5.57;;;17.20;99.90;;;;;;5094204;28;20219;-83
2022/06/30 01:43:57;;;;;;;7.40;5.93;;;17.10;99.90;;;;;;5098227;28;20196;-83
2022/06/30 01:46:36;;;;;;;12.23;6.07;;;17.00;99.90;;;;;;5096627;28;20212;-83
2022/06/30 01:49:12;;;;;;;6.88;6.22;;;16.90;99.90;;;;;;5095735;28;20632;-83
2022/06/30 01:51:42;;;;;;;8.27;5.88;;;16.90;99.90;;;;;;5098979;28;20651;-83
2022/06/30 01:54:11;;;;;;;9.27;6.03;;;16.90;99.90;;;;;;5094973;28;20189;-84
2022/06/30 01:56:42;;;;;;;10.95;5.85;;;16.80;99.90;;;;;;5102617;28;20203;-83
2022/06/30 01:59:09;;;;;;;6.25;5.65;;;16.90;99.90;;;;;;5104992;28;20203;-83
2022/06/30 02:01:54;;;;;;;7.80;5.80;;;16.90;99.90;;;;;;5093429;28;20193;-83
2022/06/30 02:04:50;;;;;;;6.82;5.97;;;16.90;99.90;;;;;;5088054;28;20185;-83
2022/06/30 02:07:18;;;;;;;6.13;5.60;;;16.80;99.90;;;;;;5092031;28;20210;-83
2022/06/30 02:09:50;;;;;;;7.25;5.80;;;16.80;99.90;;;;;;5086905;28;20627;-83
2022/06/30 02:15:27;;;;;;;7.40;6.07;;;16.60;99.90;;;;;;5094831;28;20246;-83
2022/06/30 02:17:55;;;;;;;7.63;6.00;;;16.60;99.90;;;;;;5100052;28;20193;-83
2022/06/30 02:20:24;;;;;;;8.75;5.75;;;16.60;99.90;;;;;;5092085;28;20192;-83
2022/06/30 02:22:52;;;;;;;10.05;6.00;;;16.50;99.90;;;;;;5109946;28;20200;-83
2022/06/30 02:25:21;;;;;;;7.15;6.15;;;16.50;99.90;;;;;;5086631;28;20193;-83
2022/06/30 02:31:12;;;;;;;6.72;5.90;;;16.70;99.90;;;;;;5094878;28;20553;-83
2022/06/30 02:33:39;;;;;;;6.95;6.22;;;16.60;99.90;;;;;;5095008;28;20196;-83
2022/06/30 02:36:07;;;;;;;10.68;6.18;;;16.50;99.90;;;;;;5092421;28;20192;-83
2022/06/30 02:38:34;;;;;;;7.68;6.07;;;16.40;99.90;;;;;;5092072;28;20219;-83
2022/06/30 02:41:07;;;;;;;6.50;5.88;;;16.40;99.90;;;;;;5084861;28;20695;-86
2022/06/30 02:43:48;;;;;;;8.02;5.97;;;16.40;99.90;;;;;;5089628;28;20188;-86
2022/06/30 02:46:24;;;;;;;8.20;5.57;;;16.50;99.90;;;;;;5095873;28;20257;-86
2022/06/30 02:49:06;;;;;;;10.40;6.28;;;16.60;99.90;;;;;;5094107;28;20188;-86
2022/06/30 02:51:33;;;;;;;7.28;5.55;;;16.60;99.90;;;;;;5085480;28;20184;-86
2022/06/30 02:54:06;;;;;;;8.60;5.55;;;16.60;99.90;;;;;;5081935;28;20659;-85
2022/06/30 02:56:37;;;;;;;6.07;5.57;;;16.70;99.90;;;;;;5093498;28;20261;-85
2022/06/30 02:59:04;;;;;;;6.28;5.68;;;16.70;99.90;;;;;;5094428;28;20193;-88
2022/06/30 03:01:42;;;;;;;9.93;5.68;;;16.80;99.90;;;;;;5091447;28;20203;-85
2022/06/30 03:04:12;;;;;;;8.00;5.88;;;16.70;99.90;;;;;;5091080;28;20198;-85
2022/06/30 03:06:42;;;;;;;7.22;5.93;;;16.60;99.90;;;;;;5086544;28;20203;-86
2022/06/30 03:09:09;;;;;;;10.65;5.65;;;16.50;99.90;;;;;;5086573;28;20203;-86
2022/06/30 03:11:50;;;;;;;6.78;5.75;;;16.40;99.90;;;;;;5095726;28;20259;-86
2022/06/30 03:14:18;;;;;;;7.82;5.85;;;16.40;99.90;;;;;;5095511;28;20199;-86
2022/06/30 03:17:06;;;;;;;6.50;5.90;;;16.30;99.90;;;;;;5090187;28;20201;-86
2022/06/30 03:19:48;;;;;;;10.07;6.43;;;16.20;99.90;;;;;;5086465;28;20189;-85
2022/06/30 03:22:16;;;;;;;6.97;5.82;;;16.20;99.90;;;;;;5093060;28;20228;-83
2022/06/30 03:24:48;;;;;;;8.27;5.93;;;16.20;99.90;;;;;;5087064;28;20193;-83
2022/06/30 03:27:43;;;;;;;7.75;5.57;;;16.40;99.90;;;;;;5092517;28;20213;-83
2022/06/30 03:30:11;;;;;;;6.13;5.45;;;16.50;99.90;;;;;;5096405;28;20261;-83
2022/06/30 03:32:38;;;;;;;10.38;5.88;;;16.50;99.90;;;;;;5099867;28;20621;-83
2022/06/30 03:35:24;;;;;;;7.13;5.10;;;16.50;99.90;;;;;;5095241;28;20547;-85
2022/06/30 03:38:06;;;;;;;6.72;5.50;;;16.50;99.90;;;;;;5093995;28;20667;-85
2022/06/30 03:40:54;;;;;;;6.15;5.55;;;16.50;99.90;;;;;;5088360;28;20192;-85
2022/06/30 03:43:26;;;;;;;8.82;5.07;;;16.60;99.90;;;;;;5097380;28;20188;-85
2022/06/30 03:46:00;;;;;;;7.00;5.53;;;16.60;99.90;;;;;;5089481;28;20196;-86
2022/06/30 03:48:42;;;;;;;11.60;5.88;;;16.50;99.90;;;;;;5085850;28;20234;-85
2022/06/30 03:51:13;;;;;;;7.72;5.45;;;16.40;99.90;;;;;;5097904;28;20200;-85
2022/06/30 03:53:42;;;;;;;8.35;6.15;;;16.40;99.90;;;;;;5087706;28;20524;-85
2022/06/30 03:56:12;;;;;;;8.43;5.30;;;16.50;99.90;;;;;;5102438;28;20200;-85
2022/06/30 03:58:41;;;;;;;9.65;5.65;;;16.60;99.90;;;;;;5094931;28;20208;-85
2022/06/30 04:01:12;;;;;;;7.68;5.68;;;16.70;99.90;;;;;;5090641;28;20203;-85
2022/06/30 04:03:48;;;;;;;6.75;5.20;;;16.90;99.90;;;;;;5090631;28;20188;-86
2022/06/30 04:06:24;;;;;;;6.65;5.35;;;17.40;99.90;;;;;;5100337;28;20205;-85
2022/06/30 04:09:06;;;;;;;7.72;5.40;;;18.00;99.90;;;;;;5095646;28;20624;-85
2022/06/30 04:11:36;;;;;;;5.65;5.07;;;18.70;98.40;;;;;;5087727;28;20204;-85
2022/06/30 04:14:04;;;;;;;6.32;4.70;;;18.60;97.00;;;;;;5096905;28;20188;-85
2022/06/30 04:16:42;;;;;;;10.15;4.97;;;18.30;97.70;;;;;;5082262;28;20197;-85
2022/06/30 04:19:14;;;;;;;9.10;5.10;;;18.00;97.60;;;;;;5094227;28;20204;-86
2022/06/30 04:21:41;;;;;;;7.25;5.25;;;18.00;99.40;;;;;;5088054;28;20643;-87
2022/06/30 04:24:30;;;;;;;84.03;70.07;;;18.30;99.20;;;;;;5084082;28;20197;-86
2022/06/30 04:26:56;;;;;;;135.10;111.40;;;18.40;98.30;;;;;;5085320;28;20213;-86
2022/06/30 04:29:25;;;;;;;75.22;62.28;;;18.50;98.20;;;;;;5089702;28;20652;-87
2022/06/30 04:34:42;;;;;;;65.90;55.55;;;18.10;99.00;;;;;;5088091;28;20199;-88
2022/06/30 04:37:09;;;;;;;16.98;13.80;;;18.10;99.10;;;;;;5086789;28;20223;-87
2022/06/30 04:39:42;;;;;;;16.05;13.70;;;18.10;98.40;;;;;;5083151;28;20624;-88
2022/06/30 04:42:11;;;;;;;13.18;9.32;;;18.20;98.50;;;;;;5085154;28;20702;-89
2022/06/30 04:44:49;;;;;;;9.23;6.25;;;18.20;98.40;;;;;;5083916;28;20201;-90
2022/06/30 04:47:42;;;;;;;5.93;5.20;;;18.20;98.10;;;;;;5090048;28;20232;-88
2022/06/30 04:54:00;;;;;;;9.90;5.55;;;18.20;98.20;;;;;;5086060;28;20654;-90
2022/06/30 05:00:02;;;;;;;40.15;34.67;;;18.90;97.10;;;;;;5083365;28;20203;-86
2022/06/30 05:03:00;;;;;;;6.70;5.45;;;19.00;96.30;;;;;;5091057;28;20280;-87
2022/06/30 05:06:11;;;;;;;19.63;14.32;;;18.90;96.00;;;;;;5074872;28;20257;-86
2022/06/30 05:08:38;;;;;;;16.40;14.32;;;19.10;95.90;;;;;;5086822;28;20205;-90
2022/06/30 05:11:06;;;;;;;9.50;6.07;;;19.10;96.30;;;;;;5090162;28;20678;-89
2022/06/30 05:13:34;;;;;;;7.72;6.32;;;19.00;95.90;;;;;;5094082;28;20202;-88
2022/06/30 05:16:03;;;;;;;6.82;5.20;;;19.10;96.00;;;;;;5074359;28;20640;-88
2022/06/30 05:18:30;;;;;;;9.48;4.70;;;19.00;96.30;;;;;;5105425;28;20200;-87
2022/06/30 05:21:18;;;;;;;9.07;4.50;;;19.00;96.10;;;;;;5094760;28;20185;-87
2022/06/30 05:26:54;;;;;;;8.13;3.88;;;19.10;95.30;;;;;;5007830;28;20215;-90
2022/06/30 05:29:30;;;;;;;7.93;4.30;;;19.20;95.30;;;;;;5015023;28;20214;-90
2022/06/30 05:32:10;;;;;;;4.80;3.92;;;19.50;95.10;;;;;;5015676;28;20191;-90
2022/06/30 05:34:38;;;;;;;4.57;4.00;;;19.80;94.30;;;;;;5015948;28;20721;-89
2022/06/30 05:37:13;;;;;;;4.10;3.70;;;19.90;94.10;;;;;;4992812;28;20231;-88
2022/06/30 05:39:40;;;;;;;5.30;4.03;;;19.90;93.80;;;;;;5011679;28;20187;-88
2022/06/30 05:42:12;;;;;;;9.00;4.35;;;19.70;94.20;;;;;;5079028;22;20664;-87
2022/06/30 05:44:39;;;;;;;5.63;3.83;;;19.90;94.20;;;;;;5087888;28;20205;-89
2022/06/30 05:47:31;;;;;;;7.32;4.25;;;20.50;92.80;;;;;;5087806;28;20243;-88
2022/06/30 05:50:07;;;;;;;5.93;3.80;;;20.80;91.90;;;;;;5094913;28;20207;-88
2022/06/30 05:52:34;;;;;;;5.45;3.70;;;21.20;89.70;;;;;;5097617;28;20215;-88
2022/06/30 05:55:13;;;;;;;7.72;3.85;;;21.60;88.50;;;;;;5077185;28;20721;-88
2022/06/30 05:58:03;;;;;;;4.60;3.13;;;22.30;82.40;;;;;;5091522;28;20241;-88
2022/06/30 06:00:31;;;;;;;5.20;3.50;;;22.20;82.30;;;;;;5092319;28;20197;-89
2022/06/30 06:03:15;;;;;;;7.40;4.00;;;22.00;82.20;;;;;;5098806;28;20205;-88
2022/06/30 06:05:42;;;;;;;7.40;3.92;;;21.60;83.90;;;;;;5093506;28;20238;-88
2022/06/30 06:08:10;;;;;;;6.15;3.90;;;21.40;86.40;;;;;;5088884;28;20219;-88
2022/06/30 06:10:38;;;;;;;6.72;3.72;;;21.20;90.10;;;;;;5091535;28;20200;-88
2022/06/30 06:13:07;;;;;;;6.28;4.13;;;21.10;89.70;;;;;;5086428;28;20202;-88
2022/06/30 06:16:00;;;;;;;4.47;3.85;;;20.90;90.50;;;;;;5087587;28;20199;-88
2022/06/30 06:18:38;;;;;;;4.97;3.60;;;20.90;91.00;;;;;;5097781;28;20271;-87
2022/06/30 06:21:06;;;;;;;6.07;4.13;;;20.80;91.10;;;;;;5089701;28;20204;-87
2022/06/30 06:23:36;;;;;;;7.55;4.10;;;20.80;91.00;;;;;;5094570;28;20189;-88
2022/06/30 06:26:45;;;;;;;5.47;4.20;;;20.70;92.40;;;;;;5087585;28;20203;-88
2022/06/30 06:29:17;;;;;;;9.45;4.10;;;20.80;92.10;;;;;;5076643;28;20201;-88
2022/06/30 06:32:00;;;;;;;6.13;4.53;;;20.80;92.80;;;;;;5088998;28;20200;-88
2022/06/30 06:34:28;;;;;;;5.80;3.80;;;20.90;92.10;;;;;;5095293;28;20197;-88
2022/06/30 06:36:55;;;;;;;9.07;4.15;;;20.80;91.40;;;;;;5097899;28;20193;-90
2022/06/30 06:39:24;;;;;;;7.82;3.88;;;20.80;91.00;;;;;;5095982;28;20197;-88
2022/06/30 06:42:00;;;;;;;3.83;3.42;;;20.90;91.10;;;;;;5094311;28;20678;-89
2022/06/30 06:44:42;;;;;;;5.80;3.90;;;21.10;91.20;;;;;;5093935;28;20222;-88
2022/06/30 06:47:18;;;;;;;5.40;3.63;;;21.20;91.50;;;;;;5084649;28;20220;-88
2022/06/30 06:50:08;;;;;;;11.18;4.10;;;21.30;91.20;;;;;;5095346;28;20232;-89
2022/06/30 06:52:35;;;;;;;5.95;3.40;;;21.50;90.20;;;;;;5095818;28;20648;-87
2022/06/30 06:55:20;;;;;;;5.72;3.65;;;21.60;87.50;;;;;;5106401;28;20214;-88
2022/06/30 06:57:49;;;;;;;6.78;3.78;;;21.70;85.90;;;;;;5096268;28;20276;-87
2022/06/30 07:00:17;;;;;;;6.13;3.38;;;21.60;82.00;;;;;;5094161;28;20189;-88
2022/06/30 07:02:48;;;;;;;5.55;3.50;;;21.70;82.60;;;;;;5092512;28;20199;-88
2022/06/30 07:05:20;;;;;;;5.00;3.28;;;21.80;85.30;;;;;;5092815;28;20648;-87
2022/06/30 07:07:56;;;;;;;4.32;3.88;;;21.80;84.20;;;;;;5090722;28;20216;-88
2022/06/30 07:10:36;;;;;;;5.97;3.60;;;22.00;82.20;;;;;;5093221;28;20200;-87
2022/06/30 07:13:06;;;;;;;7.50;3.65;;;22.40;79.90;;;;;;5094494;28;20194;-87
2022/06/30 07:15:33;;;;;;;6.10;3.83;;;22.60;81.10;;;;;;5097238;28;20211;-88
2022/06/30 07:18:06;;;;;;;8.50;3.35;;;22.80;79.00;;;;;;5095873;28;20207;-88
2022/06/30 07:20:45;;;;;;;6.15;3.38;;;22.80;79.30;;;;;;5085095;28;20192;-87
2022/06/30 07:23:24;;;;;;;6.32;3.50;;;23.10;74.80;;;;;;5098252;28;20192;-86
2022/06/30 07:26:18;;;;;;;6.45;3.20;;;23.50;73.50;;;;;;5095324;28;20605;-87
2022/06/30 07:29:06;;;;;;;5.32;3.05;;;23.50;65.80;;;;;;5092877;28;20204;-86
2022/06/30 07:31:43;;;;;;;4.00;2.90;;;23.60;63.70;;;;;;5095005;28;20200;-86
2022/06/30 07:34:18;;;;;;;4.88;2.83;;;24.10;57.30;;;;;;5090698;28;20648;-84
2022/06/30 07:36:46;;;;;;;4.72;3.00;;;24.40;56.60;;;;;;5093397;28;20227;-86
2022/06/30 07:39:24;;;;;;;3.88;3.00;;;23.90;53.90;;;;;;5091613;28;20188;-86
2022/06/30 07:42:18;;;;;;;4.13;3.10;;;24.00;57.00;;;;;;5089109;28;20220;-87
2022/06/30 07:44:48;;;;;;;6.30;3.40;;;23.90;56.50;;;;;;5086397;28;20200;-86
2022/06/30 07:47:15;;;;;;;7.03;3.08;;;24.00;58.30;;;;;;5103168;28;20192;-86
2022/06/30 07:49:48;;;;;;;5.43;3.28;;;24.10;56.90;;;;;;5102663;28;20249;-86
2022/06/30 07:52:20;;;;;;;8.60;3.40;;;24.10;58.00;;;;;;5093685;28;20208;-86
2022/06/30 07:54:50;;;;;;;6.13;3.63;;;23.90;59.50;;;;;;5095208;28;20196;-86
2022/06/30 07:57:19;;;;;;;5.68;3.42;;;23.80;59.90;;;;;;5097033;28;20636;-86
2022/06/30 07:59:48;;;;;;;6.70;3.60;;;24.00;62.70;;;;;;5097874;28;20721;-87
2022/06/30 08:02:24;;;;;;;5.57;3.63;;;24.10;63.50;;;;;;5096429;28;20226;-87
2022/06/30 08:04:54;;;;;;;7.72;3.45;;;24.40;56.80;;;;;;5097751;28;20275;-83
2022/06/30 08:07:32;;;;;;;6.25;3.38;;;24.70;53.20;;;;;;5100679;28;20200;-87
2022/06/30 08:10:01;;;;;;;4.63;3.30;;;24.70;53.30;;;;;;5093384;28;20196;-87
2022/06/30 08:12:30;;;;;;;5.60;3.33;;;24.70;52.00;;;;;;5095174;28;20548;-84
2022/06/30 08:15:07;;;;;;;5.95;3.83;;;24.80;53.00;;;;;;5089553;28;20594;-87
2022/06/30 08:17:47;;;;;;;5.25;3.40;;;24.90;51.10;;;;;;5093936;28;20197;-86
2022/06/30 08:20:36;;;;;;;4.97;3.58;;;25.00;51.50;;;;;;5089326;28;20694;-85
2022/06/30 08:23:04;;;;;;;4.43;3.33;;;25.40;52.40;;;;;;5088149;28;20208;-88
2022/06/30 08:25:36;;;;;;;6.25;3.40;;;27.40;37.70;;;;;;5090086;28;20568;-86
2022/06/30 08:28:12;;;;;;;4.68;3.33;;;29.00;27.00;;;;;;5094672;28;20643;-87
2022/06/30 08:30:50;;;;;;;5.28;3.47;;;30.90;23.50;;;;;;5092261;28;20199;-88
2022/06/30 08:33:17;;;;;;;6.68;3.53;;;32.80;18.10;;;;;;5093459;28;20206;-87
2022/06/30 08:35:54;;;;;;;6.47;3.85;;;32.80;18.00;;;;;;5095911;28;20198;-88
2022/06/30 08:38:26;;;;;;;6.07;4.82;;;33.00;18.20;;;;;;5083923;28;20211;-88
2022/06/30 08:43:49;;;;;;;5.80;3.90;;;34.00;16.80;;;;;;5088792;28;20203;-88
2022/06/30 08:46:26;;;;;;;3.75;3.35;;;35.00;14.20;;;;;;5086661;28;20193;-87
2022/06/30 08:48:55;;;;;;;5.50;3.97;;;35.80;12.90;;;;;;5093314;28;20219;-88
2022/06/30 08:51:22;;;;;;;5.63;4.03;;;36.00;12.40;;;;;;5094941;28;20203;-87
2022/06/30 08:54:27;;;;;;;5.03;4.30;;;36.50;11.40;;;;;;5092718;28;20212;-88
2022/06/30 08:56:57;;;;;;;8.77;4.80;;;37.10;10.10;;;;;;5089204;28;20200;-88
2022/06/30 08:59:24;;;;;;;4.40;4.00;;;37.10;10.20;;;;;;5094741;28;20196;-87
2022/06/30 09:02:12;;;;;;;4.63;4.05;;;36.10;11.40;;;;;;5095912;28;20196;-88
2022/06/30 09:04:48;;;;;;;6.63;4.22;;;36.70;10.30;;;;;;5092486;28;20196;-88
2022/06/30 09:07:36;;;;;;;5.57;4.72;;;36.40;11.10;;;;;;5094476;28;20214;-88
2022/06/30 09:10:08;;;;;;;6.35;4.30;;;35.80;11.80;;;;;;5091927;28;20196;-88
2022/06/30 09:12:37;;;;;;;5.68;4.60;;;36.60;10.20;;;;;;5091670;28;20197;-87
2022/06/30 09:15:24;;;;;;;5.43;4.50;;;35.80;10.00;;;;;;5088810;28;20207;-88
2022/06/30 09:21:28;;;;;;;7.30;4.18;;;35.20;12.70;;;;;;5088529;28;20202;-88
2022/06/30 09:23:55;;;;;;;4.82;4.32;;;36.30;10.10;;;;;;5088222;28;20192;-88
2022/06/30 09:26:24;;;;;;;4.78;4.38;;;36.30;10.10;;;;;;5095343;28;21019;-90
2022/06/30 09:28:56;;;;;;;6.05;4.50;;;36.40;10.30;;;;;;5086084;28;20230;-91
2022/06/30 09:31:38;;;;;;;6.22;4.90;;;37.60;9.30;;;;;;5088602;28;20199;-91
2022/06/30 09:34:16;;;;;;;5.68;4.82;;;36.40;10.20;;;;;;5085930;28;20253;-91
2022/06/30 09:36:45;;;;;;;8.18;4.80;;;35.30;12.10;;;;;;5086328;28;20196;-91
2022/06/30 09:39:15;;;;;;;5.60;5.00;;;34.90;13.10;;;;;;5093865;28;20220;-90
2022/06/30 09:41:44;;;;;;;5.95;5.07;;;36.60;11.10;;;;;;5085031;28;20232;-90
2022/06/30 09:44:27;;;;;;;6.05;5.20;;;36.70;10.30;;;;;;5083815;28;20196;-92
2022/06/30 09:46:59;;;;;;;7.53;5.03;;;37.00;10.50;;;;;;5093694;28;20192;-88
2022/06/30 09:49:30;;;;;;;6.03;4.72;;;35.80;9.90;;;;;;5092191;28;20205;-88
2022/06/30 09:52:20;;;;;;;7.13;4.95;;;35.20;11.80;;;;;;5094154;28;20196;-89
2022/06/30 09:55:26;;;;;;;6.13;4.82;;;35.90;11.10;;;;;;5098910;28;20196;-89
2022/06/30 09:57:54;;;;;;;6.57;5.10;;;36.10;10.60;;;;;;5092396;28;20184;-88
2022/06/30 10:00:42;;;;;;;7.28;4.85;;;36.20;10.10;;;;;;5088347;28;20226;-87
2022/06/30 10:03:09;;;;;;;6.93;5.00;;;37.00;8.40;;;;;;5093800;28;20192;-88
2022/06/30 10:06:08;;;;;;;5.72;4.93;;;36.70;9.00;;;;;;5091482;28;20203;-87
2022/06/30 10:08:36;;;;;;;6.20;4.97;;;37.00;8.00;;;;;;5091502;28;20208;-90
2022/06/30 10:11:07;;;;;;;5.32;4.88;;;36.70;10.90;;;;;;5090735;28;20192;-88
2022/06/30 10:13:36;;;;;;;6.45;5.20;;;36.20;9.90;;;;;;5093876;28;20189;-89
2022/06/30 10:16:22;;;;;;;6.55;5.03;;;36.20;9.60;;;;;;5090322;28;20203;-91
2022/06/30 10:19:18;;;;;;;7.32;5.40;;;36.30;9.50;;;;;;5085854;28;20192;-91
2022/06/30 10:21:45;;;;;;;6.88;4.90;;;36.30;10.10;;;;;;5091689;28;20192;-90
2022/06/30 10:24:14;;;;;;;4.90;4.47;;;36.60;10.00;;;;;;5092830;28;20208;-90
2022/06/30 10:27:15;;;;;;;6.43;4.90;;;36.50;9.60;;;;;;5091881;28;20613;-90
2022/06/30 10:29:57;;;;;;;6.18;4.97;;;36.30;10.10;;;;;;5093710;28;20234;-91
2022/06/30 10:32:55;;;;;;;8.40;5.10;;;37.00;10.50;;;;;;5083259;28;20195;-89
2022/06/30 10:35:32;;;;;;;6.72;4.80;;;36.50;10.20;;;;;;5095275;28;20207;-88
2022/06/30 10:38:14;;;;;;;8.32;4.90;;;36.50;10.20;;;;;;5094548;28;20248;-88
2022/06/30 10:40:55;;;;;;;6.22;4.25;;;35.60;11.80;;;;;;5091229;28;20211;-88
2022/06/30 10:43:22;;;;;;;6.90;4.45;;;35.20;11.40;;;;;;5094825;28;20208;-88
2022/06/30 10:46:02;;;;;;;6.05;4.13;;;35.90;11.10;;;;;;5092115;28;20214;-88
2022/06/30 10:49:00;;;;;;;7.05;4.25;;;35.90;12.00;;;;;;5093290;28;20685;-88
2022/06/30 10:51:29;;;;;;;5.53;4.13;;;35.70;11.50;;;;;;5085672;28;20192;-89
2022/06/30 10:54:28;;;;;;;5.80;4.10;;;35.50;10.40;;;;;;5091652;28;20594;-88
2022/06/30 10:56:57;;;;;;;4.65;3.35;;;35.90;12.00;;;;;;5095833;28;20604;-88
2022/06/30 10:59:31;;;;;;;5.40;3.97;;;35.60;9.80;;;;;;5092991;28;20254;-88
2022/06/30 11:02:39;;;;;;;5.78;4.65;;;35.00;12.50;;;;;;5094671;28;20200;-89
2022/06/30 11:05:30;;;;;;;4.07;3.50;;;34.10;14.20;;;;;;5093402;28;20247;-88
2022/06/30 11:08:46;;;;;;;6.57;3.30;;;34.20;12.50;;;;;;5090507;28;20203;-88
2022/06/30 11:12:00;;;;;;;7.28;3.53;;;33.80;12.70;;;;;;5034264;28;20661;-88
2022/06/30 11:14:33;;;;;;;4.60;3.00;;;33.00;15.20;;;;;;5029191;28;20316;-88
2022/06/30 11:17:17;;;;;;;6.32;3.17;;;32.40;16.80;;;;;;5030985;28;20646;-85
2022/06/30 11:19:44;;;;;;;5.22;3.33;;;31.40;17.30;;;;;;5030178;28;21015;-86
2022/06/30 11:22:22;;;;;;;8.70;3.38;;;31.00;17.50;;;;;;5030276;28;20210;-87
2022/06/30 11:28:15;;;;;;;8.88;3.25;;;31.00;17.10;;;;;;5026655;28;20591;-85
2022/06/30 11:30:50;;;;;;;8.52;3.30;;;30.90;17.90;;;;;;5022744;28;20209;-85
2022/06/30 11:33:24;;;;;;;7.75;3.28;;;30.70;17.00;;;;;;5023980;28;20202;-84
2022/06/30 11:36:24;;;;;;;7.15;3.00;;;30.60;18.30;;;;;;5024626;28;20717;-84
2022/06/30 11:38:56;;;;;;;6.43;3.05;;;30.60;19.80;;;;;;5021306;28;20194;-84
2022/06/30 11:44:08;;;;;;;7.88;2.95;;;30.70;20.50;;;;;;5034984;28;20205;-83
2022/06/30 11:46:54;;;;;;;4.10;3.22;;;30.10;17.80;;;;;;5050295;28;20192;-84
2022/06/30 11:49:27;;;;;;;5.70;3.15;;;29.90;20.10;;;;;;5101211;28;20218;-83
2022/06/30 11:51:56;;;;;;;5.97;3.40;;;30.10;19.50;;;;;;5089363;28;20189;-83
2022/06/30 11:54:27;;;;;;;7.63;3.35;;;30.10;20.20;;;;;;5089220;28;20193;-84
2022/06/30 11:57:00;;;;;;;6.82;3.08;;;30.00;19.70;;;;;;5096358;28;20195;-83
2022/06/30 11:59:27;;;;;;;6.97;3.15;;;30.00;18.80;;;;;;5096042;28;20279;-84
2022/06/30 12:02:08;;;;;;;5.05;2.90;;;29.90;16.60;;;;;;5095353;28;20279;-83
2022/06/30 12:04:38;;;;;;;8.52;3.03;;;29.80;16.50;;;;;;5094786;28;20192;-84
2022/06/30 12:07:07;;;;;;;5.95;3.35;;;30.00;20.60;;;;;;5095368;28;21094;-83
2022/06/30 12:09:50;;;;;;;7.40;3.35;;;30.10;18.40;;;;;;5096240;28;20201;-82
2022/06/30 12:12:22;;;;;;;6.45;3.78;;;30.20;19.80;;;;;;5095839;28;20204;-84
2022/06/30 12:14:49;;;;;;;9.10;3.45;;;30.20;21.30;;;;;;5094124;28;20244;-83
2022/06/30 12:17:17;;;;;;;5.47;3.30;;;30.30;18.80;;;;;;5087232;28;20223;-82
2022/06/30 12:19:55;;;;;;;8.02;3.35;;;30.40;20.40;;;;;;5096501;28;20655;-82
2022/06/30 12:22:25;;;;;;;5.15;2.65;;;30.20;16.70;;;;;;5090264;28;20286;-83
2022/06/30 12:25:03;;;;;;;7.15;3.20;;;30.30;16.80;;;;;;5087168;28;20200;-86
2022/06/30 12:27:41;;;;;;;7.88;3.40;;;30.40;18.00;;;;;;5091016;28;20196;-87
2022/06/30 12:30:15;;;;;;;6.45;3.70;;;30.30;19.60;;;;;;5088038;28;20214;-87
2022/06/30 12:32:52;;;;;;;5.90;3.30;;;30.20;20.00;;;;;;5090667;28;20542;-86
2022/06/30 12:35:42;;;;;;;5.32;3.50;;;30.10;20.00;;;;;;5091086;28;20207;-86
2022/06/30 12:38:24;;;;;;;6.80;3.60;;;30.00;21.00;;;;;;5093493;28;20199;-85
2022/06/30 12:40:55;;;;;;;7.18;3.70;;;30.00;21.20;;;;;;5094456;28;20247;-85
2022/06/30 12:43:44;;;;;;;4.70;3.15;;;29.80;21.60;;;;;;5090434;28;20212;-85
2022/06/30 12:46:13;;;;;;;6.22;3.22;;;29.80;22.20;;;;;;5099234;28;20195;-85
2022/06/30 12:48:43;;;;;;;8.73;3.45;;;29.80;21.50;;;;;;5093233;28;20234;-87
2022/06/30 12:51:42;;;;;;;6.80;3.78;;;29.70;23.50;;;;;;5096172;28;20216;-87
2022/06/30 12:54:16;;;;;;;5.20;3.40;;;29.80;24.20;;;;;;5085059;28;20188;-84
2022/06/30 12:56:51;;;;;;;8.68;3.35;;;29.90;21.90;;;;;;5099704;28;20196;-90
2022/06/30 12:59:46;;;;;;;4.78;3.45;;;29.80;21.10;;;;;;5095284;28;20191;-86
2022/06/30 13:02:16;;;;;;;6.45;2.97;;;29.90;19.20;;;;;;5087607;28;20264;-84
2022/06/30 13:04:49;;;;;;;7.30;3.25;;;30.10;17.20;;;;;;5095345;28;20259;-85
2022/06/30 13:07:20;;;;;;;6.82;3.20;;;30.00;19.20;;;;;;5095326;28;20207;-85
2022/06/30 13:09:49;;;;;;;9.77;3.75;;;29.70;21.00;;;;;;5097000;28;20220;-87
2022/06/30 13:12:16;;;;;;;6.03;3.28;;;29.90;22.00;;;;;;5094746;28;20200;-86
2022/06/30 13:14:44;;;;;;;7.63;3.75;;;30.10;20.60;;;;;;5107210;28;20277;-85
2022/06/30 13:17:19;;;;;;;9.15;3.90;;;29.90;21.60;;;;;;5096407;28;20284;-85
2022/06/30 13:19:59;;;;;;;6.60;3.45;;;29.80;22.40;;;;;;5093256;28;20192;-85
2022/06/30 13:22:26;;;;;;;7.05;3.60;;;29.60;23.00;;;;;;5095206;28;20200;-85
2022/06/30 13:25:07;;;;;;;6.78;3.67;;;29.50;23.80;;;;;;5094543;28;20258;-87
2022/06/30 13:27:37;;;;;;;8.60;3.85;;;29.50;23.40;;;;;;5100104;28;20221;-85
2022/06/30 13:30:04;;;;;;;6.97;3.60;;;29.60;23.00;;;;;;5105458;28;20231;-86
2022/06/30 13:32:37;;;;;;;7.72;3.50;;;29.60;22.20;;;;;;5092826;28;20251;-86
2022/06/30 13:35:08;;;;;;;7.07;3.28;;;29.70;22.60;;;;;;5095932;28;20710;-86
2022/06/30 13:37:37;;;;;;;6.30;3.50;;;29.80;20.50;;;;;;5089290;28;20207;-86
2022/06/30 13:40:05;;;;;;;6.85;3.65;;;29.70;22.30;;;;;;5090881;28;20203;-83
2022/06/30 13:42:32;;;;;;;7.15;4.43;;;29.80;20.50;;;;;;5088086;28;20231;-83
2022/06/30 13:44:58;;;;;;;5.57;2.97;;;29.70;21.10;;;;;;5092562;28;20195;-82
2022/06/30 13:47:31;;;;;;;6.53;3.80;;;29.50;21.60;;;;;;5096115;28;20561;-83
2022/06/30 13:50:09;;;;;;;10.10;4.10;;;29.60;22.50;;;;;;5089678;28;20220;-84
2022/06/30 13:52:48;;;;;;;7.65;3.35;;;29.40;23.30;;;;;;5086737;28;20200;-84
2022/06/30 13:55:25;;;;;;;8.50;3.67;;;29.50;21.30;;;;;;5090165;28;20196;-85
2022/06/30 13:57:52;;;;;;;7.82;3.35;;;29.40;24.00;;;;;;5086948;28;20199;-85
2022/06/30 14:00:37;;;;;;;6.07;3.30;;;29.60;22.70;;;;;;5097251;28;20204;-83
2022/06/30 14:03:07;;;;;;;5.75;3.50;;;29.60;23.10;;;;;;5097376;28;20245;-86